createdAt,value
2022-08-22T00:01:30.234Z,75.78
2022-08-22T00:02:43.872Z,67.09
2022-08-22T00:02:49.633Z,66.99
2022-08-22T00:02:57.071Z,63.81
2022-08-22T00:02:59.283Z,74.27
2022-08-22T00:04:03.954Z,74.51
2022-08-22T00:06:43.561Z,75.08
2022-08-22T00:09:18.991Z,75.31
2022-08-22T00:12:15.900Z,75.69
2022-08-22T00:15:42.213Z,75.53
2022-08-22T00:18:16.183Z,75.46
2022-08-22T00:21:29.555Z,75.82
2022-08-22T00:24:18.986Z,76.87
2022-08-22T00:26:52.675Z,76.55
2022-08-22T00:29:33.406Z,76.75
2022-08-22T00:32:10.744Z,76.60
2022-08-22T00:34:48.957Z,76.37
2022-08-22T00:37:22.351Z,76.72
2022-08-22T00:40:07.309Z,77.75
2022-08-22T00:42:45.941Z,78.59
2022-08-22T00:45:21.184Z,77.62
2022-08-22T00:48:01.194Z,78.38
2022-08-22T00:50:59.985Z,78.11
2022-08-22T00:53:47.253Z,79.15
2022-08-22T00:57:08.145Z,78.99
2022-08-22T00:59:49.894Z,79.65
2022-08-22T01:02:31.774Z,79.07
2022-08-22T01:05:04.065Z,78.97
2022-08-22T01:08:05.132Z,79.26
2022-08-22T01:11:00.792Z,79.11
2022-08-22T01:14:13.487Z,78.98
2022-08-22T01:17:10.457Z,79.15
2022-08-22T01:20:13.943Z,79.45
2022-08-22T01:23:08.191Z,79.87
2022-08-22T01:26:12.380Z,80.00
2022-08-22T01:28:59.170Z,79.91
2022-08-22T01:31:44.342Z,79.33
2022-08-22T01:34:19.630Z,79.60
2022-08-22T01:37:23.852Z,79.26
2022-08-22T01:40:05.525Z,79.14
2022-08-22T01:43:11.037Z,79.12
2022-08-22T01:45:40.571Z,79.65
2022-08-22T01:48:16.539Z,79.28
2022-08-22T01:50:47.504Z,79.22
2022-08-22T01:53:28.628Z,79.85
2022-08-22T01:56:10.853Z,80.14
2022-08-22T01:58:43.879Z,80.58
2022-08-22T02:01:33.752Z,80.23
2022-08-22T02:04:04.906Z,80.93
2022-08-22T02:06:46.021Z,81.12
2022-08-22T02:09:40.422Z,81.45
2022-08-22T02:12:25.591Z,81.01
2022-08-22T02:15:07.169Z,81.60
2022-08-22T02:17:48.257Z,80.82
2022-08-22T02:20:30.175Z,80.71
2022-08-22T02:23:36.445Z,80.96
2022-08-22T02:26:09.827Z,81.07
2022-08-22T02:28:56.993Z,81.19
2022-08-22T02:31:37.970Z,81.27
2022-08-22T02:34:26.449Z,81.34
2022-08-22T02:37:06.864Z,81.33
2022-08-22T02:39:46.549Z,81.70
2022-08-22T02:42:41.125Z,81.52
2022-08-22T02:45:22.873Z,81.70
2022-08-22T02:47:57.272Z,81.14
2022-08-22T02:50:46.423Z,80.92
2022-08-22T02:53:23.775Z,81.74
2022-08-22T02:56:03.868Z,81.68
2022-08-22T02:58:49.499Z,81.81
2022-08-22T03:01:37.455Z,81.86
2022-08-22T03:04:22.804Z,82.56
2022-08-22T03:06:58.535Z,82.97
2022-08-22T03:09:29.401Z,82.91
2022-08-22T03:12:06.328Z,82.67
2022-08-22T03:14:43.343Z,82.66
2022-08-22T03:17:16.212Z,83.07
2022-08-22T03:19:55.109Z,82.89
2022-08-22T03:22:39.447Z,82.85
2022-08-22T03:25:32.323Z,82.42
2022-08-22T03:28:03.178Z,82.07
2022-08-22T03:30:34.705Z,82.09
2022-08-22T03:33:17.951Z,82.30
2022-08-22T03:35:44.946Z,82.52
2022-08-22T03:38:22.729Z,82.85
2022-08-22T03:41:08.104Z,82.48
2022-08-22T03:43:52.874Z,82.31
2022-08-22T03:46:43.968Z,83.05
2022-08-22T03:49:42.541Z,83.01
2022-08-22T03:52:27.740Z,83.60
2022-08-22T03:55:20.549Z,83.63
2022-08-22T03:58:27.631Z,83.82
2022-08-22T04:01:12.512Z,84.41
2022-08-22T04:04:16.395Z,83.87
2022-08-22T04:07:19.665Z,83.83
2022-08-22T04:10:10.442Z,84.32
2022-08-22T04:12:45.059Z,85.16
2022-08-22T04:15:30.371Z,85.08
2022-08-22T04:18:05.619Z,85.26
2022-08-22T04:20:52.630Z,85.46
2022-08-22T04:23:58.437Z,85.30
2022-08-22T04:26:49.618Z,85.13
2022-08-22T04:29:48.737Z,85.10
2022-08-22T04:32:25.354Z,84.87
2022-08-22T04:34:59.276Z,85.39
2022-08-22T04:37:56.246Z,85.44
2022-08-22T04:40:30.457Z,85.31
2022-08-22T04:43:06.192Z,84.95
2022-08-22T04:45:38.193Z,85.22
2022-08-22T04:48:09.623Z,85.30
2022-08-22T04:50:43.636Z,85.34
2022-08-22T04:53:48.828Z,85.04
2022-08-22T04:56:22.491Z,84.55
2022-08-22T04:58:57.025Z,84.11
2022-08-22T05:01:44.771Z,84.02
2022-08-22T05:04:19.930Z,83.39
2022-08-22T05:06:53.700Z,83.28
2022-08-22T05:09:25.742Z,83.13
2022-08-22T05:11:55.525Z,83.12
2022-08-22T05:14:28.093Z,83.28
2022-08-22T05:16:54.537Z,83.27
2022-08-22T05:19:32.081Z,82.71
2022-08-22T05:21:59.440Z,82.02
2022-08-22T05:24:32.858Z,81.11
2022-08-22T05:27:11.939Z,80.78
2022-08-22T05:29:41.168Z,80.71
2022-08-22T05:32:12.657Z,79.71
2022-08-22T05:34:40.813Z,78.71
2022-08-22T05:37:17.782Z,79.20
2022-08-22T05:39:47.912Z,78.34
2022-08-22T05:42:30.421Z,77.47
2022-08-22T05:44:57.210Z,77.90
2022-08-22T05:47:34.071Z,78.89
2022-08-22T05:50:12.545Z,78.68
2022-08-22T05:52:48.449Z,77.88
2022-08-22T05:55:26.807Z,78.11
2022-08-22T05:58:10.834Z,78.57
2022-08-22T06:00:41.197Z,77.76
2022-08-22T06:03:26.717Z,76.88
2022-08-22T06:05:56.168Z,77.61
2022-08-22T06:08:34.324Z,76.10
2022-08-22T06:11:09.247Z,77.20
2022-08-22T06:13:41.383Z,76.85
2022-08-22T06:16:08.110Z,76.10
2022-08-22T06:18:38.139Z,76.18
2022-08-22T06:21:09.715Z,75.88
2022-08-22T06:23:36.976Z,75.66
2022-08-22T06:26:05.312Z,75.26
2022-08-22T06:28:37.195Z,73.01
2022-08-22T06:31:22.586Z,73.74
2022-08-22T06:34:07.618Z,73.94
2022-08-22T06:36:39.188Z,72.73
2022-08-22T06:39:09.070Z,73.20
2022-08-22T06:42:03.050Z,72.54
2022-08-22T06:44:41.531Z,72.77
2022-08-22T06:47:10.360Z,72.27
2022-08-22T06:49:37.901Z,70.69
2022-08-22T06:52:11.716Z,70.92
2022-08-22T06:54:44.730Z,70.91
2022-08-22T06:57:37.180Z,70.56
2022-08-22T07:00:09.565Z,68.77
2022-08-22T07:02:42.482Z,68.47
2022-08-22T07:05:17.507Z,69.36
2022-08-22T07:07:44.150Z,69.09
2022-08-22T07:10:13.252Z,68.52
2022-08-22T07:12:48.501Z,69.44
2022-08-22T07:15:34.316Z,68.42
2022-08-22T07:18:08.108Z,69.57
2022-08-22T07:20:38.681Z,69.79
2022-08-22T07:23:10.813Z,68.08
2022-08-22T07:26:01.525Z,67.29
2022-08-22T07:28:51.650Z,67.88
2022-08-22T07:31:37.020Z,68.96
2022-08-22T07:34:23.931Z,67.35
2022-08-22T07:36:59.224Z,66.07
2022-08-22T07:39:38.094Z,66.10
2022-08-22T07:42:18.244Z,66.17
2022-08-22T07:45:03.873Z,65.39
2022-08-22T07:48:04.198Z,63.90
2022-08-22T07:50:39.380Z,65.08
2022-08-22T07:53:19.877Z,63.00
2022-08-22T07:55:49.683Z,63.97
2022-08-22T07:58:17.020Z,62.92
2022-08-22T08:00:45.196Z,62.88
2022-08-22T08:03:12.275Z,63.05
2022-08-22T08:05:42.227Z,62.10
2022-08-22T08:08:21.546Z,60.49
2022-08-22T08:10:49.035Z,60.78
2022-08-22T08:13:21.517Z,57.99
2022-08-22T08:15:50.455Z,59.43
2022-08-22T08:18:21.843Z,60.29
2022-08-22T08:20:55.825Z,59.21
2022-08-22T08:23:23.757Z,57.85
2022-08-22T08:26:03.376Z,58.51
2022-08-22T08:28:36.095Z,57.18
2022-08-22T08:31:16.623Z,54.99
2022-08-22T08:33:45.396Z,56.87
2022-08-22T08:36:21.094Z,56.70
2022-08-22T08:38:55.816Z,56.19
2022-08-22T08:41:45.485Z,55.69
2022-08-22T08:44:30.419Z,55.25
2022-08-22T08:47:24.775Z,55.45
2022-08-22T08:49:57.259Z,55.04
2022-08-22T08:52:26.796Z,54.25
2022-08-22T08:58:24.036Z,53.96
2022-08-22T09:01:16.850Z,52.91
2022-08-22T09:04:04.939Z,53.06
2022-08-22T09:06:43.815Z,53.28
2022-08-22T09:09:22.332Z,52.36
2022-08-22T09:11:54.879Z,50.54
2022-08-22T09:14:27.189Z,51.74
2022-08-22T09:17:19.724Z,48.48
2022-08-22T09:19:59.613Z,51.65
2022-08-22T09:22:50.811Z,49.77
2022-08-22T09:25:23.409Z,51.36
2022-08-22T09:28:14.442Z,51.80
2022-08-22T09:31:32.911Z,51.70
2022-08-22T09:34:23.840Z,50.47
2022-08-22T09:37:09.161Z,49.72
2022-08-22T09:40:17.276Z,49.18
2022-08-22T09:43:11.069Z,50.47
2022-08-22T09:45:43.022Z,49.14
2022-08-22T09:48:34.599Z,48.85
2022-08-22T09:51:31.462Z,49.58
2022-08-22T09:54:16.434Z,50.07
2022-08-22T09:57:05.229Z,49.77
2022-08-22T09:59:51.853Z,50.62
2022-08-22T10:02:43.647Z,46.20
2022-08-22T10:05:41.145Z,45.51
2022-08-22T10:08:20.210Z,51.10
2022-08-22T10:10:54.715Z,49.05
2022-08-22T10:13:43.436Z,49.00
2022-08-22T10:16:43.701Z,48.40
2022-08-22T10:19:27.836Z,45.66
2022-08-22T10:22:33.598Z,47.82
2022-08-22T10:25:28.515Z,47.33
2022-08-22T10:28:06.532Z,40.50
2022-08-22T10:30:47.182Z,44.02
2022-08-22T10:33:29.130Z,46.60
2022-08-22T10:36:05.200Z,48.16
2022-08-22T10:38:47.063Z,45.31
2022-08-22T10:41:13.647Z,44.58
2022-08-22T10:44:10.860Z,43.38
2022-08-22T10:46:50.109Z,45.28
2022-08-22T10:49:40.658Z,43.05
2022-08-22T10:52:45.768Z,43.37
2022-08-22T10:55:15.595Z,44.19
2022-08-22T10:57:53.015Z,44.84
2022-08-22T11:00:46.197Z,44.28
2022-08-22T11:03:40.760Z,43.94
2022-08-22T11:06:14.069Z,41.11
2022-08-22T11:09:04.751Z,39.68
2022-08-22T11:11:54.138Z,42.34
2022-08-22T11:14:23.422Z,42.67
2022-08-22T11:16:58.763Z,45.87
2022-08-22T11:19:44.757Z,45.40
2022-08-22T11:22:30.562Z,43.28
2022-08-22T11:25:13.757Z,42.17
2022-08-22T11:28:01.802Z,41.01
2022-08-22T11:30:44.952Z,40.63
2022-08-22T11:33:32.491Z,39.75
2022-08-22T11:36:20.082Z,39.42
2022-08-22T11:39:09.987Z,40.41
2022-08-22T11:41:57.775Z,39.03
2022-08-22T11:44:52.175Z,39.82
2022-08-22T11:47:27.132Z,38.64
2022-08-22T11:50:03.728Z,36.59
2022-08-22T11:53:15.030Z,39.13
2022-08-22T11:55:54.057Z,37.10
2022-08-22T11:58:20.863Z,36.97
2022-08-22T12:01:03.941Z,35.23
2022-08-22T12:04:04.533Z,36.82
2022-08-22T12:06:48.531Z,36.11
2022-08-22T12:09:27.004Z,38.96
2022-08-22T12:12:18.128Z,36.94
2022-08-22T12:15:09.324Z,36.86
2022-08-22T12:17:55.221Z,38.51
2022-08-22T12:20:53.402Z,37.80
2022-08-22T12:23:48.598Z,38.46
2022-08-22T12:26:35.104Z,37.84
2022-08-22T12:29:39.973Z,39.11
2022-08-22T12:32:45.918Z,40.36
2022-08-22T12:35:29.935Z,39.30
2022-08-22T12:38:29.308Z,41.27
2022-08-22T12:41:08.096Z,40.80
2022-08-22T12:43:57.620Z,39.71
2022-08-22T12:46:46.776Z,43.05
2022-08-22T12:49:52.641Z,41.29
2022-08-22T12:52:44.397Z,42.31
2022-08-22T12:55:20.708Z,40.13
2022-08-22T12:58:03.836Z,43.57
2022-08-22T13:00:40.243Z,43.42
2022-08-22T13:03:11.427Z,41.11
2022-08-22T13:05:40.533Z,41.09
2022-08-22T13:08:20.539Z,39.19
2022-08-22T13:10:54.489Z,38.66
2022-08-22T13:13:37.314Z,38.56
2022-08-22T13:16:08.971Z,39.56
2022-08-22T13:18:46.825Z,39.86
2022-08-22T13:21:24.812Z,36.91
2022-08-22T13:23:57.590Z,37.32
2022-08-22T13:26:31.864Z,40.58
2022-08-22T13:29:26.746Z,40.77
2022-08-22T13:31:56.261Z,42.47
2022-08-22T13:34:38.406Z,37.07
2022-08-22T13:37:07.691Z,42.54
2022-08-22T13:39:39.259Z,39.65
2022-08-22T13:42:07.650Z,43.71
2022-08-22T13:44:44.426Z,42.13
2022-08-22T13:47:15.000Z,38.90
2022-08-22T13:49:45.337Z,43.27
2022-08-22T13:52:29.234Z,42.00
2022-08-22T13:55:12.403Z,43.57
2022-08-22T13:58:00.316Z,38.30
2022-08-22T14:00:35.702Z,38.68
2022-08-22T14:03:14.113Z,39.59
2022-08-22T14:05:48.213Z,37.14
2022-08-22T14:08:20.914Z,39.46
2022-08-22T14:10:55.146Z,37.84
2022-08-22T14:13:48.554Z,38.12
2022-08-22T14:16:32.723Z,36.24
2022-08-22T14:19:06.161Z,40.79
2022-08-22T14:21:46.184Z,40.00
2022-08-22T14:24:18.965Z,41.60
2022-08-22T14:27:06.425Z,39.36
2022-08-22T14:29:54.936Z,39.79
2022-08-22T14:32:22.800Z,39.51
2022-08-22T14:35:01.351Z,37.66
2022-08-22T14:37:35.113Z,41.28
2022-08-22T14:40:29.581Z,36.61
2022-08-22T14:43:08.188Z,40.40
2022-08-22T14:45:38.128Z,41.44
2022-08-22T14:48:31.627Z,42.17
2022-08-22T14:51:08.404Z,43.65
2022-08-22T14:53:38.091Z,43.52
2022-08-22T14:56:05.461Z,42.53
2022-08-22T14:58:36.013Z,41.62
2022-08-22T15:01:15.469Z,40.60
2022-08-22T15:03:42.887Z,43.63
2022-08-22T15:06:16.972Z,42.06
2022-08-22T15:08:49.924Z,41.64
2022-08-22T15:11:20.909Z,44.58
2022-08-22T15:14:04.399Z,44.44
2022-08-22T15:16:40.389Z,44.59
2022-08-22T15:19:28.577Z,41.33
2022-08-22T15:22:13.626Z,42.91
2022-08-22T15:25:22.893Z,38.91
2022-08-22T15:28:05.588Z,38.17
2022-08-22T15:31:03.794Z,37.28
2022-08-22T15:33:36.198Z,38.25
2022-08-22T15:36:20.128Z,39.79
2022-08-22T15:38:55.651Z,42.02
2022-08-22T15:41:31.347Z,41.68
2022-08-22T15:44:32.492Z,41.55
2022-08-22T15:47:01.416Z,39.32
2022-08-22T15:49:30.862Z,39.36
2022-08-22T15:52:03.281Z,40.28
2022-08-22T15:54:31.389Z,38.64
2022-08-22T15:57:10.378Z,40.60
2022-08-22T15:59:54.063Z,38.24
2022-08-22T16:02:26.045Z,35.41
2022-08-22T16:05:22.432Z,37.68
2022-08-22T16:07:51.944Z,37.96
2022-08-22T16:10:24.789Z,39.23
2022-08-22T16:13:35.430Z,40.29
2022-08-22T16:16:07.360Z,40.85
2022-08-22T16:18:33.899Z,43.09
2022-08-22T16:21:04.450Z,42.33
2022-08-22T16:23:46.227Z,40.23
2022-08-22T16:26:15.523Z,39.24
2022-08-22T16:28:58.771Z,38.32
2022-08-22T16:31:35.864Z,34.28
2022-08-22T16:34:17.748Z,33.91
2022-08-22T16:36:54.607Z,31.60
2022-08-22T16:39:23.941Z,30.68
2022-08-22T16:41:53.087Z,33.16
2022-08-22T16:44:22.501Z,34.56
2022-08-22T16:46:52.054Z,38.14
2022-08-22T16:49:30.871Z,38.85
2022-08-22T16:52:25.385Z,40.52
2022-08-22T16:55:02.770Z,39.73
2022-08-22T16:58:07.161Z,42.49
2022-08-22T17:00:36.602Z,40.66
2022-08-22T17:03:11.110Z,41.83
2022-08-22T17:06:15.245Z,41.30
2022-08-22T17:09:00.382Z,39.41
2022-08-22T17:11:49.286Z,40.95
2022-08-22T17:14:39.041Z,44.77
2022-08-22T17:17:32.818Z,41.17
2022-08-22T17:20:17.694Z,42.64
2022-08-22T17:22:58.087Z,45.51
2022-08-22T17:25:30.521Z,45.00
2022-08-22T17:28:20.003Z,44.35
2022-08-22T17:30:59.229Z,40.73
2022-08-22T17:33:40.870Z,41.13
2022-08-22T17:36:26.837Z,42.95
2022-08-22T17:39:15.837Z,42.24
2022-08-22T17:41:48.556Z,40.64
2022-08-22T17:44:33.808Z,42.30
2022-08-22T17:47:09.802Z,40.17
2022-08-22T17:49:42.400Z,42.74
2022-08-22T17:52:44.048Z,43.25
2022-08-22T17:55:23.179Z,43.19
2022-08-22T17:58:13.642Z,45.59
2022-08-22T18:01:09.312Z,42.50
2022-08-22T18:03:38.898Z,43.80
2022-08-22T18:06:40.811Z,43.56
2022-08-22T18:09:21.886Z,44.03
2022-08-22T18:12:00.993Z,42.35
2022-08-22T18:15:03.741Z,43.13
2022-08-22T18:17:31.731Z,43.48
2022-08-22T18:20:05.631Z,45.37
2022-08-22T18:22:41.899Z,44.17
2022-08-22T18:25:17.684Z,44.77
2022-08-22T18:27:52.108Z,52.95
2022-08-22T18:30:22.341Z,56.97
2022-08-22T18:33:22.507Z,56.38
2022-08-22T18:35:54.647Z,57.61
2022-08-22T18:38:25.491Z,57.79
2022-08-22T18:41:07.359Z,59.32
2022-08-22T18:43:42.791Z,60.41
2022-08-22T18:46:33.268Z,55.92
2022-08-22T18:49:19.822Z,58.85
2022-08-22T18:52:05.429Z,55.10
2022-08-22T18:54:34.799Z,58.95
2022-08-22T18:57:40.317Z,57.67
2022-08-22T19:00:21.501Z,59.53
2022-08-22T19:03:14.578Z,59.87
2022-08-22T19:05:50.513Z,59.93
2022-08-22T19:08:33.369Z,60.63
2022-08-22T19:11:12.815Z,62.28
2022-08-22T19:14:13.824Z,63.35
2022-08-22T19:17:03.048Z,61.80
2022-08-22T19:20:07.998Z,60.76
2022-08-22T19:22:36.405Z,62.27
2022-08-22T19:25:06.048Z,61.37
2022-08-22T19:27:40.440Z,61.95
2022-08-22T19:30:29.143Z,62.07
2022-08-22T19:32:59.462Z,62.48
2022-08-22T19:35:27.912Z,63.29
2022-08-22T19:38:01.093Z,62.13
2022-08-22T19:40:45.714Z,61.72
2022-08-22T19:43:38.642Z,62.33
2022-08-22T19:46:08.687Z,63.47
2022-08-22T19:48:43.552Z,62.64
2022-08-22T19:51:24.400Z,62.50
2022-08-22T19:54:17.492Z,62.68
2022-08-22T19:56:50.497Z,64.15
2022-08-22T19:59:26.309Z,63.80
2022-08-22T20:02:02.547Z,63.69
2022-08-22T20:04:35.126Z,63.65
2022-08-22T20:07:26.180Z,64.98
2022-08-22T20:10:05.360Z,64.58
2022-08-22T20:13:05.393Z,64.21
2022-08-22T20:16:02.514Z,64.92
2022-08-22T20:19:07.984Z,64.83
2022-08-22T20:21:39.370Z,64.40
2022-08-22T20:24:09.081Z,65.11
2022-08-22T20:26:51.929Z,64.14
2022-08-22T20:29:39.595Z,64.08
2022-08-22T20:32:06.736Z,64.34
2022-08-22T20:34:37.310Z,64.74
2022-08-22T20:37:27.084Z,64.88
2022-08-22T20:40:21.093Z,65.11
2022-08-22T20:43:01.942Z,64.99
2022-08-22T20:45:41.211Z,64.66
2022-08-22T20:48:11.211Z,65.21
2022-08-22T20:50:38.062Z,64.21
2022-08-22T20:53:12.477Z,64.93
2022-08-22T20:55:39.362Z,64.97
2022-08-22T20:58:23.279Z,64.76
2022-08-22T21:00:52.591Z,65.28
2022-08-22T21:03:34.701Z,64.59
2022-08-22T21:06:17.972Z,65.39
2022-08-22T21:08:45.718Z,65.54
2022-08-22T21:11:40.041Z,65.47
2022-08-22T21:14:21.301Z,65.04
2022-08-22T21:16:47.920Z,65.32
2022-08-22T21:19:26.588Z,65.02
2022-08-22T21:21:53.344Z,65.08
2022-08-22T21:24:20.345Z,65.36
2022-08-22T21:26:51.917Z,65.09
2022-08-22T21:29:26.994Z,65.36
2022-08-22T21:32:14.581Z,65.24
2022-08-22T21:34:43.243Z,64.85
2022-08-22T21:37:15.236Z,65.53
2022-08-22T21:39:45.324Z,64.98
2022-08-22T21:42:22.204Z,64.78
2022-08-22T21:45:06.521Z,64.58
2022-08-22T21:47:36.963Z,65.07
2022-08-22T21:50:12.559Z,64.67
2022-08-22T21:52:44.104Z,63.87
2022-08-22T21:55:34.444Z,64.11
2022-08-22T21:58:01.580Z,64.42
2022-08-22T22:01:02.022Z,64.11
2022-08-22T22:03:31.143Z,63.03
2022-08-22T22:06:02.842Z,63.38
2022-08-22T22:08:31.397Z,62.35
2022-08-22T22:11:00.840Z,63.06
2022-08-22T22:13:28.560Z,63.45
2022-08-22T22:15:55.384Z,63.24
2022-08-22T22:18:27.303Z,62.81
2022-08-22T22:20:54.209Z,63.48
2022-08-22T22:23:22.095Z,63.18
2022-08-22T22:25:49.575Z,63.28
2022-08-22T22:28:19.879Z,62.02
2022-08-22T22:30:53.035Z,62.71
2022-08-22T22:33:26.699Z,63.60
2022-08-22T22:35:55.000Z,63.97
2022-08-22T22:38:24.225Z,64.10
2022-08-22T22:40:51.356Z,64.92
2022-08-22T22:43:17.996Z,65.01
2022-08-22T22:45:44.638Z,64.79
2022-08-22T22:48:11.279Z,64.93
2022-08-22T22:50:44.785Z,65.12
2022-08-22T22:53:12.105Z,63.64
2022-08-22T22:55:48.078Z,64.95
2022-08-22T22:58:27.464Z,63.72
2022-08-22T23:00:54.241Z,64.62
2022-08-22T23:03:20.891Z,64.54
2022-08-22T23:05:47.439Z,65.18
2022-08-22T23:08:13.998Z,64.44
2022-08-22T23:10:40.621Z,64.90
2022-08-22T23:13:07.304Z,65.52
2022-08-22T23:15:34.470Z,65.00
2022-08-22T23:18:01.378Z,66.02
2022-08-22T23:20:28.083Z,66.40
2022-08-22T23:22:54.662Z,65.65
2022-08-22T23:25:21.442Z,66.01
2022-08-22T23:27:48.757Z,66.38
2022-08-22T23:30:19.624Z,66.46
2022-08-22T23:32:46.225Z,65.85
2022-08-22T23:35:12.868Z,66.14
2022-08-22T23:37:39.430Z,65.42
2022-08-22T23:40:10.227Z,65.94
2022-08-22T23:42:37.035Z,65.35
2022-08-22T23:45:04.022Z,66.30
2022-08-22T23:47:30.631Z,66.12
2022-08-22T23:49:57.216Z,66.83
2022-08-22T23:52:23.783Z,66.24
2022-08-22T23:54:55.596Z,66.57
2022-08-22T23:57:27.321Z,67.34
2022-08-22T23:59:57.803Z,67.74
